sensor_id;sensor_type;location;lat;lon;timestamp;pressure;altitude;pressure_sealevel;temperature;humidity
37078;BME280;22989;55.998;37.212;2022-09-09T00:00:15;99742.59;;;5.16;82.63
37078;BME280;22989;55.998;37.212;2022-09-09T00:03:01;99742.69;;;5.19;82.24
37078;BME280;22989;55.998;37.212;2022-09-09T00:05:35;99739.31;;;5.20;82.47
37078;BME280;22989;55.998;37.212;2022-09-09T00:08:13;99739.28;;;5.19;82.22
37078;BME280;22989;55.998;37.212;2022-09-09T00:10:41;99741.75;;;5.16;81.96
37078;BME280;22989;55.998;37.212;2022-09-09T00:16:25;99745.84;;;5.11;81.55
37078;BME280;22989;55.998;37.212;2022-09-09T00:19:07;99752.56;;;5.09;81.30
37078;BME280;22989;55.998;37.212;2022-09-09T00:21:36;99760.13;;;5.06;81.36
37078;BME280;22989;55.998;37.212;2022-09-09T00:24:14;99756.78;;;5.07;81.39
37078;BME280;22989;55.998;37.212;2022-09-09T00:26:51;99758.34;;;5.03;81.44
37078;BME280;22989;55.998;37.212;2022-09-09T00:31:54;99760.56;;;4.92;81.38
37078;BME280;22989;55.998;37.212;2022-09-09T00:34:23;99757.88;;;4.87;81.33
37078;BME280;22989;55.998;37.212;2022-09-09T00:36:52;99761.94;;;4.81;81.65
37078;BME280;22989;55.998;37.212;2022-09-09T00:39:46;99760.72;;;4.69;81.52
37078;BME280;22989;55.998;37.212;2022-09-09T00:42:20;99767.97;;;4.57;81.70
37078;BME280;22989;55.998;37.212;2022-09-09T00:47:46;99765.66;;;4.39;81.98
37078;BME280;22989;55.998;37.212;2022-09-09T00:55:41;99775.69;;;4.09;82.90
37078;BME280;22989;55.998;37.212;2022-09-09T00:58:10;99783.91;;;4.01;83.07
37078;BME280;22989;55.998;37.212;2022-09-09T01:00:46;99777.06;;;3.99;83.40
37078;BME280;22989;55.998;37.212;2022-09-09T01:06:16;99777.19;;;4.03;84.02
37078;BME280;22989;55.998;37.212;2022-09-09T01:11:21;99775.88;;;4.15;84.41
37078;BME280;22989;55.998;37.212;2022-09-09T01:13:53;99784.41;;;4.15;84.55
37078;BME280;22989;55.998;37.212;2022-09-09T01:16:21;99784.22;;;4.11;84.45
37078;BME280;22989;55.998;37.212;2022-09-09T01:18:49;99783.28;;;4.07;84.61
37078;BME280;22989;55.998;37.212;2022-09-09T01:27:12;99785.88;;;4.09;84.77
37078;BME280;22989;55.998;37.212;2022-09-09T01:29:40;99794.50;;;4.12;84.79
37078;BME280;22989;55.998;37.212;2022-09-09T01:32:39;99793.66;;;4.13;84.55
37078;BME280;22989;55.998;37.212;2022-09-09T01:35:12;99792.84;;;4.14;84.63
37078;BME280;22989;55.998;37.212;2022-09-09T01:37:41;99803.00;;;4.13;84.49
37078;BME280;22989;55.998;37.212;2022-09-09T01:40:07;99804.75;;;4.14;84.60
37078;BME280;22989;55.998;37.212;2022-09-09T01:42:34;99808.94;;;4.13;84.66
37078;BME280;22989;55.998;37.212;2022-09-09T01:45:00;99804.69;;;4.12;84.56
37078;BME280;22989;55.998;37.212;2022-09-09T01:47:26;99810.47;;;4.08;84.54
37078;BME280;22989;55.998;37.212;2022-09-09T01:50:03;99812.16;;;4.08;84.42
37078;BME280;22989;55.998;37.212;2022-09-09T01:52:30;99809.50;;;4.05;84.58
37078;BME280;22989;55.998;37.212;2022-09-09T01:54:57;99814.41;;;4.00;84.58
37078;BME280;22989;55.998;37.212;2022-09-09T01:57:31;99816.88;;;3.97;84.41
37078;BME280;22989;55.998;37.212;2022-09-09T02:00:10;99815.06;;;3.94;84.57
37078;BME280;22989;55.998;37.212;2022-09-09T02:07:48;99823.97;;;3.81;84.76
37078;BME280;22989;55.998;37.212;2022-09-09T02:10:34;99825.41;;;3.75;84.71
37078;BME280;22989;55.998;37.212;2022-09-09T02:13:17;99829.41;;;3.68;85.05
37078;BME280;22989;55.998;37.212;2022-09-09T02:15:55;99829.16;;;3.62;84.90
37078;BME280;22989;55.998;37.212;2022-09-09T02:18:35;99828.88;;;3.54;84.84
37078;BME280;22989;55.998;37.212;2022-09-09T02:21:05;99837.94;;;3.47;85.18
37078;BME280;22989;55.998;37.212;2022-09-09T02:23:33;99837.75;;;3.41;85.24
37078;BME280;22989;55.998;37.212;2022-09-09T02:26:03;99839.28;;;3.38;85.34
37078;BME280;22989;55.998;37.212;2022-09-09T02:28:32;99843.38;;;3.34;85.52
37078;BME280;22989;55.998;37.212;2022-09-09T02:30:59;99844.94;;;3.30;85.60
37078;BME280;22989;55.998;37.212;2022-09-09T02:33:45;99841.34;;;3.25;85.88
37078;BME280;22989;55.998;37.212;2022-09-09T02:36:15;99838.63;;;3.21;85.96
37078;BME280;22989;55.998;37.212;2022-09-09T02:38:46;99842.75;;;3.17;86.03
37078;BME280;22989;55.998;37.212;2022-09-09T02:41:38;99849.41;;;3.15;86.18
37078;BME280;22989;55.998;37.212;2022-09-09T02:44:14;99856.09;;;3.13;86.51
37078;BME280;22989;55.998;37.212;2022-09-09T02:52:08;99854.03;;;3.02;86.64
37078;BME280;22989;55.998;37.212;2022-09-09T02:54:37;99865.84;;;3.02;86.99
37078;BME280;22989;55.998;37.212;2022-09-09T02:57:14;99861.50;;;2.99;86.99
37078;BME280;22989;55.998;37.212;2022-09-09T02:59:44;99865.78;;;3.00;86.93
37078;BME280;22989;55.998;37.212;2022-09-09T03:02:10;99870.94;;;3.02;87.18
37078;BME280;22989;55.998;37.212;2022-09-09T03:04:40;99860.84;;;3.04;87.49
37078;BME280;22989;55.998;37.212;2022-09-09T03:07:07;99866.84;;;3.06;87.34
37078;BME280;22989;55.998;37.212;2022-09-09T03:09:33;99871.25;;;3.10;87.63
37078;BME280;22989;55.998;37.212;2022-09-09T03:11:58;99873.88;;;3.78;87.89
37078;BME280;22989;55.998;37.212;2022-09-09T03:14:26;99867.59;;;4.15;87.77
37078;BME280;22989;55.998;37.212;2022-09-09T03:16:53;99872.19;;;4.01;87.32
37078;BME280;22989;55.998;37.212;2022-09-09T03:19:21;99872.44;;;3.84;87.00
37078;BME280;22989;55.998;37.212;2022-09-09T03:21:48;99877.88;;;3.71;86.43
37078;BME280;22989;55.998;37.212;2022-09-09T03:24:14;99878.22;;;3.58;86.49
37078;BME280;22989;55.998;37.212;2022-09-09T03:26:41;99882.91;;;3.69;86.52
37078;BME280;22989;55.998;37.212;2022-09-09T03:29:12;99877.00;;;5.17;87.14
37078;BME280;22989;55.998;37.212;2022-09-09T03:31:40;99868.69;;;7.05;87.11
37078;BME280;22989;55.998;37.212;2022-09-09T03:34:06;99866.00;;;8.60;84.68
37078;BME280;22989;55.998;37.212;2022-09-09T03:36:35;99865.47;;;9.94;78.40
37078;BME280;22989;55.998;37.212;2022-09-09T03:39:02;99860.69;;;11.11;70.96
37078;BME280;22989;55.998;37.212;2022-09-09T03:41:30;99856.22;;;12.30;63.47
37078;BME280;22989;55.998;37.212;2022-09-09T03:43:57;99853.72;;;13.23;58.62
37078;BME280;22989;55.998;37.212;2022-09-09T03:46:25;99856.94;;;14.15;54.02
37078;BME280;22989;55.998;37.212;2022-09-09T03:48:52;99850.41;;;14.99;50.63
37078;BME280;22989;55.998;37.212;2022-09-09T03:51:18;99850.91;;;15.38;47.88
37078;BME280;22989;55.998;37.212;2022-09-09T03:53:44;99847.22;;;15.61;46.84
37078;BME280;22989;55.998;37.212;2022-09-09T03:56:11;99854.38;;;16.18;45.10
37078;BME280;22989;55.998;37.212;2022-09-09T03:58:37;99857.72;;;16.86;43.64
37078;BME280;22989;55.998;37.212;2022-09-09T04:03:37;99856.63;;;17.98;40.42
37078;BME280;22989;55.998;37.212;2022-09-09T04:06:04;99862.41;;;18.53;39.21
37078;BME280;22989;55.998;37.212;2022-09-09T04:08:32;99853.41;;;19.04;37.93
37078;BME280;22989;55.998;37.212;2022-09-09T04:10:59;99859.00;;;19.57;36.66
37078;BME280;22989;55.998;37.212;2022-09-09T04:13:28;99867.09;;;20.11;35.72
37078;BME280;22989;55.998;37.212;2022-09-09T04:16:00;99856.34;;;20.50;34.01
37078;BME280;22989;55.998;37.212;2022-09-09T04:18:27;99862.78;;;20.68;33.51
37078;BME280;22989;55.998;37.212;2022-09-09T04:20:56;99862.50;;;20.77;33.02
37078;BME280;22989;55.998;37.212;2022-09-09T04:23:26;99868.34;;;21.12;32.67
37078;BME280;22989;55.998;37.212;2022-09-09T04:25:56;99869.91;;;21.43;31.95
37078;BME280;22989;55.998;37.212;2022-09-09T04:28:24;99865.44;;;21.72;31.37
37078;BME280;22989;55.998;37.212;2022-09-09T04:30:52;99873.53;;;21.90;30.71
37078;BME280;22989;55.998;37.212;2022-09-09T04:33:19;99867.09;;;22.22;30.41
37078;BME280;22989;55.998;37.212;2022-09-09T04:35:48;99869.34;;;22.55;29.71
37078;BME280;22989;55.998;37.212;2022-09-09T04:38:16;99865.25;;;22.92;29.12
37078;BME280;22989;55.998;37.212;2022-09-09T04:40:47;99871.34;;;23.15;28.66
37078;BME280;22989;55.998;37.212;2022-09-09T04:43:14;99875.56;;;22.97;28.16
37078;BME280;22989;55.998;37.212;2022-09-09T04:45:42;99883.81;;;23.08;28.69
37078;BME280;22989;55.998;37.212;2022-09-09T04:48:09;99889.59;;;23.39;27.84
37078;BME280;22989;55.998;37.212;2022-09-09T04:50:37;99887.03;;;22.94;27.95
37078;BME280;22989;55.998;37.212;2022-09-09T04:53:04;99889.06;;;23.31;27.98
37078;BME280;22989;55.998;37.212;2022-09-09T04:55:31;99884.03;;;23.86;27.23
37078;BME280;22989;55.998;37.212;2022-09-09T04:57:57;99886.97;;;24.39;26.53
37078;BME280;22989;55.998;37.212;2022-09-09T05:00:25;99886.06;;;23.40;26.37
37078;BME280;22989;55.998;37.212;2022-09-09T05:02:52;99896.63;;;23.38;27.18
37078;BME280;22989;55.998;37.212;2022-09-09T05:05:18;99905.78;;;22.16;28.28
37078;BME280;22989;55.998;37.212;2022-09-09T05:07:45;99898.22;;;22.08;28.72
37078;BME280;22989;55.998;37.212;2022-09-09T05:10:13;99905.94;;;22.58;28.18
37078;BME280;22989;55.998;37.212;2022-09-09T05:12:40;99898.81;;;23.06;28.22
37078;BME280;22989;55.998;37.212;2022-09-09T05:15:07;99897.78;;;23.93;27.29
37078;BME280;22989;55.998;37.212;2022-09-09T05:17:32;99898.72;;;24.68;26.18
37078;BME280;22989;55.998;37.212;2022-09-09T05:19:59;99905.50;;;24.74;25.54
37078;BME280;22989;55.998;37.212;2022-09-09T05:22:25;99914.88;;;23.62;26.67
37078;BME280;22989;55.998;37.212;2022-09-09T05:24:52;99907.97;;;23.18;27.33
37078;BME280;22989;55.998;37.212;2022-09-09T05:27:18;99913.50;;;23.10;27.90
37078;BME280;22989;55.998;37.212;2022-09-09T05:29:48;99912.06;;;24.06;26.97
37078;BME280;22989;55.998;37.212;2022-09-09T05:32:14;99906.84;;;25.00;26.08
37078;BME280;22989;55.998;37.212;2022-09-09T05:34:46;99913.44;;;25.79;25.00
37078;BME280;22989;55.998;37.212;2022-09-09T05:37:12;99921.84;;;24.81;25.22
37078;BME280;22989;55.998;37.212;2022-09-09T05:39:38;99922.38;;;23.51;27.11
37078;BME280;22989;55.998;37.212;2022-09-09T05:42:04;99928.94;;;21.79;28.37
37078;BME280;22989;55.998;37.212;2022-09-09T05:44:32;99934.09;;;20.14;31.20
37078;BME280;22989;55.998;37.212;2022-09-09T05:46:59;99928.59;;;21.63;30.87
37078;BME280;22989;55.998;37.212;2022-09-09T05:49:25;99919.72;;;23.08;28.33
37078;BME280;22989;55.998;37.212;2022-09-09T05:51:51;99930.13;;;21.70;28.81
37078;BME280;22989;55.998;37.212;2022-09-09T05:54:19;99933.81;;;20.23;30.91
37078;BME280;22989;55.998;37.212;2022-09-09T05:56:48;99928.25;;;20.93;31.16
37078;BME280;22989;55.998;37.212;2022-09-09T05:59:16;99930.56;;;22.54;29.71
37078;BME280;22989;55.998;37.212;2022-09-09T06:01:41;99923.53;;;23.85;27.74
37078;BME280;22989;55.998;37.212;2022-09-09T06:04:13;99925.34;;;23.63;26.68
37078;BME280;22989;55.998;37.212;2022-09-09T06:06:40;99931.53;;;23.20;27.39
37078;BME280;22989;55.998;37.212;2022-09-09T06:09:11;99930.63;;;23.83;27.09
37078;BME280;22989;55.998;37.212;2022-09-09T06:11:40;99934.84;;;24.26;26.26
37078;BME280;22989;55.998;37.212;2022-09-09T06:14:08;99929.47;;;25.04;25.57
37078;BME280;22989;55.998;37.212;2022-09-09T06:16:34;99945.09;;;23.72;25.98
37078;BME280;22989;55.998;37.212;2022-09-09T06:19:01;99957.59;;;21.58;27.96
37078;BME280;22989;55.998;37.212;2022-09-09T06:21:36;99967.13;;;17.31;33.11
37078;BME280;22989;55.998;37.212;2022-09-09T06:24:03;99978.13;;;16.18;36.86
37078;BME280;22989;55.998;37.212;2022-09-09T06:26:31;99974.75;;;16.83;36.78
37078;BME280;22989;55.998;37.212;2022-09-09T06:29:00;99960.44;;;18.58;34.50
37078;BME280;22989;55.998;37.212;2022-09-09T06:31:30;99953.25;;;18.70;33.80
37078;BME280;22989;55.998;37.212;2022-09-09T06:33:59;99954.91;;;19.13;33.45
37078;BME280;22989;55.998;37.212;2022-09-09T06:36:28;99954.88;;;20.17;31.67
37078;BME280;22989;55.998;37.212;2022-09-09T06:38:55;99963.25;;;18.49;33.38
37078;BME280;22989;55.998;37.212;2022-09-09T06:41:23;99959.53;;;18.19;33.58
37078;BME280;22989;55.998;37.212;2022-09-09T06:43:49;99970.97;;;16.37;36.09
37078;BME280;22989;55.998;37.212;2022-09-09T06:46:18;99987.06;;;14.63;38.33
37078;BME280;22989;55.998;37.212;2022-09-09T06:48:45;99986.28;;;14.42;40.83
37078;BME280;22989;55.998;37.212;2022-09-09T06:51:18;99982.53;;;16.81;37.85
37078;BME280;22989;55.998;37.212;2022-09-09T06:53:49;99988.50;;;16.21;36.59
37078;BME280;22989;55.998;37.212;2022-09-09T06:56:26;100001.00;;;14.25;39.59
37078;BME280;22989;55.998;37.212;2022-09-09T06:58:56;100003.47;;;12.69;43.17
37078;BME280;22989;55.998;37.212;2022-09-09T07:01:28;100004.25;;;12.46;44.26
37078;BME280;22989;55.998;37.212;2022-09-09T07:03:59;100008.66;;;12.80;43.64
37078;BME280;22989;55.998;37.212;2022-09-09T07:08:55;100001.59;;;12.32;43.74
37078;BME280;22989;55.998;37.212;2022-09-09T07:11:25;99999.75;;;12.11;45.07
37078;BME280;22989;55.998;37.212;2022-09-09T07:13:52;100005.41;;;11.62;45.87
37078;BME280;22989;55.998;37.212;2022-09-09T07:16:19;99996.47;;;12.41;45.81
37078;BME280;22989;55.998;37.212;2022-09-09T07:18:54;99986.81;;;15.08;42.03
37078;BME280;22989;55.998;37.212;2022-09-09T07:21:24;99980.25;;;16.58;36.94
37078;BME280;22989;55.998;37.212;2022-09-09T07:23:52;99984.94;;;17.54;35.47
37078;BME280;22989;55.998;37.212;2022-09-09T07:26:21;99989.41;;;18.85;33.89
37078;BME280;22989;55.998;37.212;2022-09-09T07:28:48;99983.09;;;18.97;32.75
37078;BME280;22989;55.998;37.212;2022-09-09T07:31:27;99992.34;;;18.70;32.36
37078;BME280;22989;55.998;37.212;2022-09-09T07:33:53;100001.06;;;18.25;33.75
37078;BME280;22989;55.998;37.212;2022-09-09T07:36:24;100006.59;;;18.53;33.58
37078;BME280;22989;55.998;37.212;2022-09-09T07:38:58;100006.59;;;17.56;33.73
37078;BME280;22989;55.998;37.212;2022-09-09T07:41:27;100014.47;;;16.94;35.06
37078;BME280;22989;55.998;37.212;2022-09-09T07:43:54;100019.16;;;15.77;36.32
37078;BME280;22989;55.998;37.212;2022-09-09T07:46:21;100026.78;;;14.51;38.26
37078;BME280;22989;55.998;37.212;2022-09-09T07:48:50;100026.78;;;14.56;39.49
37078;BME280;22989;55.998;37.212;2022-09-09T07:51:29;100029.41;;;14.43;39.45
37078;BME280;22989;55.998;37.212;2022-09-09T07:53:58;100033.72;;;13.05;41.61
37078;BME280;22989;55.998;37.212;2022-09-09T07:56:27;100036.09;;;12.53;43.67
37078;BME280;22989;55.998;37.212;2022-09-09T07:58:55;100041.28;;;12.59;43.82
37078;BME280;22989;55.998;37.212;2022-09-09T08:01:22;100042.13;;;12.52;44.21
37078;BME280;22989;55.998;37.212;2022-09-09T08:03:55;100039.69;;;12.84;44.88
37078;BME280;22989;55.998;37.212;2022-09-09T08:06:21;100041.44;;;13.04;45.16
37078;BME280;22989;55.998;37.212;2022-09-09T08:08:52;100035.47;;;13.09;44.35
37078;BME280;22989;55.998;37.212;2022-09-09T08:11:19;100044.88;;;12.92;43.97
37078;BME280;22989;55.998;37.212;2022-09-09T08:13:45;100042.19;;;12.63;44.30
37078;BME280;22989;55.998;37.212;2022-09-09T08:16:17;100040.44;;;12.60;45.47
37078;BME280;22989;55.998;37.212;2022-09-09T08:18:43;100039.41;;;12.25;45.35
37078;BME280;22989;55.998;37.212;2022-09-09T08:21:17;100050.47;;;12.09;45.59
37078;BME280;22989;55.998;37.212;2022-09-09T08:23:45;100041.47;;;11.62;46.23
37078;BME280;22989;55.998;37.212;2022-09-09T08:26:17;100043.97;;;11.51;46.64
37078;BME280;22989;55.998;37.212;2022-09-09T08:28:44;100044.81;;;11.52;46.67
37078;BME280;22989;55.998;37.212;2022-09-09T08:31:14;100053.72;;;11.91;45.15
37078;BME280;22989;55.998;37.212;2022-09-09T08:33:42;100052.88;;;11.86;43.53
37078;BME280;22989;55.998;37.212;2022-09-09T08:36:11;100056.94;;;11.61;44.41
37078;BME280;22989;55.998;37.212;2022-09-09T08:38:37;100065.41;;;11.46;45.12
37078;BME280;22989;55.998;37.212;2022-09-09T08:41:15;100061.84;;;11.36;46.00
37078;BME280;22989;55.998;37.212;2022-09-09T08:43:58;100057.59;;;11.38;46.69
37078;BME280;22989;55.998;37.212;2022-09-09T08:52:21;100064.28;;;12.14;46.22
37078;BME280;22989;55.998;37.212;2022-09-09T08:54:48;100063.88;;;11.71;45.53
37078;BME280;22989;55.998;37.212;2022-09-09T08:57:21;100064.69;;;11.62;45.92
37078;BME280;22989;55.998;37.212;2022-09-09T08:59:53;100058.13;;;11.97;45.60
37078;BME280;22989;55.998;37.212;2022-09-09T09:02:27;100046.53;;;12.82;43.92
37078;BME280;22989;55.998;37.212;2022-09-09T09:10:21;100053.66;;;13.42;42.01
37078;BME280;22989;55.998;37.212;2022-09-09T09:12:51;100063.88;;;13.14;42.63
37078;BME280;22989;55.998;37.212;2022-09-09T09:15:23;100062.94;;;12.84;43.53
37078;BME280;22989;55.998;37.212;2022-09-09T09:17:52;100060.22;;;12.55;44.17
37078;BME280;22989;55.998;37.212;2022-09-09T09:20:37;100054.97;;;12.41;44.88
37078;BME280;22989;55.998;37.212;2022-09-09T09:23:17;100056.56;;;12.17;45.03
37078;BME280;22989;55.998;37.212;2022-09-09T09:25:44;100059.78;;;11.90;45.90
37078;BME280;22989;55.998;37.212;2022-09-09T09:30:54;100067.44;;;11.84;46.58
37078;BME280;22989;55.998;37.212;2022-09-09T09:35:52;100065.69;;;11.80;46.86
37078;BME280;22989;55.998;37.212;2022-09-09T09:38:24;100065.06;;;12.07;47.18
37078;BME280;22989;55.998;37.212;2022-09-09T09:40:56;100056.75;;;12.53;46.17
37078;BME280;22989;55.998;37.212;2022-09-09T09:43:28;100050.88;;;12.83;44.73
37078;BME280;22989;55.998;37.212;2022-09-09T09:45:55;100047.53;;;13.17;44.02
37078;BME280;22989;55.998;37.212;2022-09-09T09:48:25;100047.59;;;13.40;43.55
37078;BME280;22989;55.998;37.212;2022-09-09T09:50:57;100050.22;;;13.65;42.79
37078;BME280;22989;55.998;37.212;2022-09-09T09:53:30;100052.78;;;13.57;42.89
37078;BME280;22989;55.998;37.212;2022-09-09T09:56:06;100051.91;;;13.55;43.09
37078;BME280;22989;55.998;37.212;2022-09-09T10:04:00;100059.50;;;12.90;45.10
37078;BME280;22989;55.998;37.212;2022-09-09T10:06:37;100060.47;;;13.26;44.60
37078;BME280;22989;55.998;37.212;2022-09-09T10:09:17;100062.28;;;13.56;43.32
37078;BME280;22989;55.998;37.212;2022-09-09T10:11:57;100054.53;;;13.70;42.51
37078;BME280;22989;55.998;37.212;2022-09-09T10:14:48;100056.22;;;13.57;42.53
37078;BME280;22989;55.998;37.212;2022-09-09T10:20:32;100061.25;;;13.00;42.86
37078;BME280;22989;55.998;37.212;2022-09-09T10:23:34;100058.69;;;13.00;43.10
37078;BME280;22989;55.998;37.212;2022-09-09T10:37:23;100061.34;;;13.28;42.99
37078;BME280;22989;55.998;37.212;2022-09-09T10:40:20;100053.66;;;13.64;41.87
37078;BME280;22989;55.998;37.212;2022-09-09T10:42:51;100057.09;;;13.64;41.26
37078;BME280;22989;55.998;37.212;2022-09-09T10:53:24;100064.00;;;13.61;42.30
37078;BME280;22989;55.998;37.212;2022-09-09T10:56:00;100068.22;;;13.26;41.89
37078;BME280;22989;55.998;37.212;2022-09-09T10:58:52;100065.56;;;13.00;43.05
37078;BME280;22989;55.998;37.212;2022-09-09T11:01:23;100068.09;;;12.81;43.61
37078;BME280;22989;55.998;37.212;2022-09-09T11:03:56;100068.81;;;12.54;43.74
37078;BME280;22989;55.998;37.212;2022-09-09T11:06:30;100062.59;;;12.22;44.36
37078;BME280;22989;55.998;37.212;2022-09-09T11:09:00;100061.44;;;11.83;45.22
37078;BME280;22989;55.998;37.212;2022-09-09T11:14:01;100064.69;;;11.61;46.82
37078;BME280;22989;55.998;37.212;2022-09-09T11:17:04;100064.78;;;11.76;48.03
37078;BME280;22989;55.998;37.212;2022-09-09T11:19:43;100054.81;;;12.13;47.30
37078;BME280;22989;55.998;37.212;2022-09-09T11:22:34;100046.34;;;12.39;45.18
37078;BME280;22989;55.998;37.212;2022-09-09T11:25:17;100053.44;;;12.86;44.85
37078;BME280;22989;55.998;37.212;2022-09-09T11:38:46;100044.16;;;14.10;41.23
37078;BME280;22989;55.998;37.212;2022-09-09T11:41:14;100043.28;;;14.08;41.06
37078;BME280;22989;55.998;37.212;2022-09-09T11:43:45;100048.47;;;14.21;40.55
37078;BME280;22989;55.998;37.212;2022-09-09T11:46:13;100045.84;;;14.33;40.63
37078;BME280;22989;55.998;37.212;2022-09-09T11:48:42;100048.47;;;14.13;40.31
37078;BME280;22989;55.998;37.212;2022-09-09T11:53:55;100051.84;;;13.18;42.26
37078;BME280;22989;55.998;37.212;2022-09-09T11:56:28;100056.06;;;12.94;42.79
37078;BME280;22989;55.998;37.212;2022-09-09T12:01:34;100059.41;;;12.71;43.70
37078;BME280;22989;55.998;37.212;2022-09-09T12:04:33;100051.63;;;12.59;44.14
37078;BME280;22989;55.998;37.212;2022-09-09T12:10:04;100045.47;;;12.32;44.47
37078;BME280;22989;55.998;37.212;2022-09-09T12:12:33;100052.22;;;12.15;45.33
37078;BME280;22989;55.998;37.212;2022-09-09T12:17:42;100046.94;;;11.95;46.55
37078;BME280;22989;55.998;37.212;2022-09-09T12:20:19;100047.63;;;11.77;45.85
37078;BME280;22989;55.998;37.212;2022-09-09T12:23:06;100050.91;;;11.60;45.75
37078;BME280;22989;55.998;37.212;2022-09-09T12:31:27;100045.91;;;11.79;45.99
37078;BME280;22989;55.998;37.212;2022-09-09T12:34:09;100053.13;;;12.17;45.46
37078;BME280;22989;55.998;37.212;2022-09-09T12:36:37;100042.94;;;12.45;43.98
37078;BME280;22989;55.998;37.212;2022-09-09T12:39:35;100038.88;;;13.13;43.09
37078;BME280;22989;55.998;37.212;2022-09-09T12:42:01;100036.41;;;13.72;41.99
37078;BME280;22989;55.998;37.212;2022-09-09T12:44:30;100031.19;;;14.23;41.04
37078;BME280;22989;55.998;37.212;2022-09-09T12:46:59;100031.16;;;14.48;39.83
37078;BME280;22989;55.998;37.212;2022-09-09T12:51:54;100031.94;;;14.68;39.47
37078;BME280;22989;55.998;37.212;2022-09-09T12:54:22;100036.28;;;14.65;39.00
37078;BME280;22989;55.998;37.212;2022-09-09T12:56:49;100044.06;;;14.46;39.09
37078;BME280;22989;55.998;37.212;2022-09-09T12:59:37;100034.66;;;14.17;38.53
37078;BME280;22989;55.998;37.212;2022-09-09T13:02:36;100034.72;;;13.75;38.06
37078;BME280;22989;55.998;37.212;2022-09-09T13:05:16;100032.09;;;13.48;38.47
37078;BME280;22989;55.998;37.212;2022-09-09T13:07:42;100036.41;;;13.42;38.53
37078;BME280;22989;55.998;37.212;2022-09-09T13:10:23;100040.66;;;13.26;38.20
37078;BME280;22989;55.998;37.212;2022-09-09T13:12:50;100032.88;;;13.11;38.68
37078;BME280;22989;55.998;37.212;2022-09-09T13:15:21;100030.31;;;13.20;39.11
37078;BME280;22989;55.998;37.212;2022-09-09T13:17:53;100038.03;;;13.17;39.35
37078;BME280;22989;55.998;37.212;2022-09-09T13:20:21;100031.16;;;13.08;39.94
37078;BME280;22989;55.998;37.212;2022-09-09T13:22:49;100034.56;;;13.07;40.59
37078;BME280;22989;55.998;37.212;2022-09-09T13:25:27;100035.47;;;13.26;40.70
37078;BME280;22989;55.998;37.212;2022-09-09T13:28:02;100032.09;;;13.40;40.19
37078;BME280;22989;55.998;37.212;2022-09-09T13:30:33;100038.94;;;13.30;39.94
37078;BME280;22989;55.998;37.212;2022-09-09T13:35:31;100042.31;;;12.90;40.69
37078;BME280;22989;55.998;37.212;2022-09-09T13:37:58;100039.63;;;12.70;40.96
37078;BME280;22989;55.998;37.212;2022-09-09T13:40:25;100030.97;;;12.62;41.40
37078;BME280;22989;55.998;37.212;2022-09-09T13:42:56;100037.75;;;12.41;41.78
37078;BME280;22989;55.998;37.212;2022-09-09T13:45:25;100035.13;;;12.29;42.42
37078;BME280;22989;55.998;37.212;2022-09-09T13:47:53;100034.25;;;12.27;42.25
37078;BME280;22989;55.998;37.212;2022-09-09T13:50:23;100034.94;;;12.04;42.60
37078;BME280;22989;55.998;37.212;2022-09-09T13:52:53;100029.78;;;12.01;42.77
37078;BME280;22989;55.998;37.212;2022-09-09T13:55:22;100033.28;;;12.09;42.95
37078;BME280;22989;55.998;37.212;2022-09-09T14:00:21;100035.66;;;11.83;43.09
37078;BME280;22989;55.998;37.212;2022-09-09T14:02:48;100024.38;;;11.73;43.06
37078;BME280;22989;55.998;37.212;2022-09-09T14:05:14;100034.59;;;11.64;42.98
37078;BME280;22989;55.998;37.212;2022-09-09T14:07:42;100036.25;;;11.56;43.07
37078;BME280;22989;55.998;37.212;2022-09-09T14:10:08;100024.28;;;11.58;42.81
37078;BME280;22989;55.998;37.212;2022-09-09T14:12:34;100032.94;;;11.69;42.76
37078;BME280;22989;55.998;37.212;2022-09-09T14:15:03;100024.41;;;11.77;42.86
37078;BME280;22989;55.998;37.212;2022-09-09T14:17:29;100024.50;;;11.87;42.93
37078;BME280;22989;55.998;37.212;2022-09-09T14:19:55;100021.94;;;11.89;42.67
37078;BME280;22989;55.998;37.212;2022-09-09T14:22:22;100027.19;;;11.98;43.12
37078;BME280;22989;55.998;37.212;2022-09-09T14:24:48;100021.22;;;12.07;43.02
37078;BME280;22989;55.998;37.212;2022-09-09T14:27:14;100022.16;;;12.20;42.50
37078;BME280;22989;55.998;37.212;2022-09-09T14:29:40;100023.97;;;12.35;42.58
37078;BME280;22989;55.998;37.212;2022-09-09T14:32:06;100022.38;;;12.58;42.56
37078;BME280;22989;55.998;37.212;2022-09-09T14:34:31;100024.16;;;12.80;42.32
37078;BME280;22989;55.998;37.212;2022-09-09T14:37:00;100021.63;;;12.95;41.97
37078;BME280;22989;55.998;37.212;2022-09-09T14:39:26;100014.75;;;13.05;41.79
37078;BME280;22989;55.998;37.212;2022-09-09T14:41:52;100018.22;;;13.12;41.59
37078;BME280;22989;55.998;37.212;2022-09-09T14:44:18;100013.06;;;13.05;41.52
37078;BME280;22989;55.998;37.212;2022-09-09T14:46:44;100025.03;;;12.86;41.36
37078;BME280;22989;55.998;37.212;2022-09-09T14:49:10;100022.38;;;12.60;42.52
37078;BME280;22989;55.998;37.212;2022-09-09T14:51:36;100023.13;;;12.34;43.33
37078;BME280;22989;55.998;37.212;2022-09-09T14:54:02;100021.22;;;12.08;42.96
37078;BME280;22989;55.998;37.212;2022-09-09T14:56:31;100021.94;;;11.89;43.29
37078;BME280;22989;55.998;37.212;2022-09-09T14:58:58;100028.53;;;11.56;43.87
37078;BME280;22989;55.998;37.212;2022-09-09T15:01:26;100034.31;;;11.30;44.51
37078;BME280;22989;55.998;37.212;2022-09-09T15:03:54;100027.22;;;11.09;44.73
37078;BME280;22989;55.998;37.212;2022-09-09T15:06:22;100027.81;;;10.85;45.17
37078;BME280;22989;55.998;37.212;2022-09-09T15:08:50;100030.22;;;10.68;45.64